sensor_id;sensor_type;location;lat;lon;timestamp;noise_LAeq;noise_LA_min;noise_LA_max;noise_LA01;noise_LA95
18377;Laerm;9315;52.624;13.544;2022-07-10T00:01:32;54.94;35.08;71.83;;
18377;Laerm;9315;52.624;13.544;2022-07-10T00:03:59;57.87;36.52;74.99;;
18377;Laerm;9315;52.624;13.544;2022-07-10T00:06:26;56.47;36.29;71.89;;
18377;Laerm;9315;52.624;13.544;2022-07-10T00:08:53;53.08;35.30;67.81;;
18377;Laerm;9315;52.624;13.544;2022-07-10T00:11:22;53.16;36.08;70.85;;
18377;Laerm;9315;52.624;13.544;2022-07-10T00:13:49;57.08;35.09;72.66;;
18377;Laerm;9315;52.624;13.544;2022-07-10T00:16:16;55.39;35.51;70.97;;
18377;Laerm;9315;52.624;13.544;2022-07-10T00:18:43;52.56;34.90;69.29;;
18377;Laerm;9315;52.624;13.544;2022-07-10T00:21:10;59.78;37.54;76.24;;
18377;Laerm;9315;52.624;13.544;2022-07-10T00:23:38;55.66;35.63;72.01;;
18377;Laerm;9315;52.624;13.544;2022-07-10T00:26:05;59.59;35.29;81.82;;
18377;Laerm;9315;52.624;13.544;2022-07-10T00:28:32;58.26;35.58;73.56;;
18377;Laerm;9315;52.624;13.544;2022-07-10T00:30:59;57.88;35.86;75.40;;
18377;Laerm;9315;52.624;13.544;2022-07-10T00:33:26;56.70;34.88;72.70;;
18377;Laerm;9315;52.624;13.544;2022-07-10T00:35:54;56.48;34.74;77.28;;
18377;Laerm;9315;52.624;13.544;2022-07-10T00:38:21;59.85;36.21;76.07;;
18377;Laerm;9315;52.624;13.544;2022-07-10T00:40:48;52.78;34.89;70.20;;
18377;Laerm;9315;52.624;13.544;2022-07-10T00:43:16;52.92;35.38;72.19;;
18377;Laerm;9315;52.624;13.544;2022-07-10T00:45:43;53.98;34.71;73.97;;
18377;Laerm;9315;52.624;13.544;2022-07-10T00:48:10;53.15;35.09;72.67;;
18377;Laerm;9315;52.624;13.544;2022-07-10T00:50:37;54.32;34.95;71.81;;
18377;Laerm;9315;52.624;13.544;2022-07-10T00:53:05;37.49;33.92;43.92;;
18377;Laerm;9315;52.624;13.544;2022-07-10T00:55:34;56.89;32.23;72.82;;
18377;Laerm;9315;52.624;13.544;2022-07-10T00:58:04;37.18;32.33;56.92;;
18377;Laerm;9315;52.624;13.544;2022-07-10T01:00:35;57.30;35.00;73.09;;
18377;Laerm;9315;52.624;13.544;2022-07-10T01:03:04;36.27;31.87;42.97;;
18377;Laerm;9315;52.624;13.544;2022-07-10T01:05:31;37.19;33.14;47.81;;
18377;Laerm;9315;52.624;13.544;2022-07-10T01:07:58;36.89;33.28;47.98;;
18377;Laerm;9315;52.624;13.544;2022-07-10T01:10:25;52.48;32.02;69.25;;
18377;Laerm;9315;52.624;13.544;2022-07-10T01:12:54;49.93;33.24;67.81;;
18377;Laerm;9315;52.624;13.544;2022-07-10T01:15:21;52.05;33.33;68.07;;
18377;Laerm;9315;52.624;13.544;2022-07-10T01:17:48;37.52;33.47;46.13;;
18377;Laerm;9315;52.624;13.544;2022-07-10T01:20:16;57.55;34.02;75.26;;
18377;Laerm;9315;52.624;13.544;2022-07-10T01:22:43;37.67;32.37;47.56;;
18377;Laerm;9315;52.624;13.544;2022-07-10T01:25:10;36.73;32.21;43.08;;
18377;Laerm;9315;52.624;13.544;2022-07-10T01:27:38;54.75;33.83;73.81;;
18377;Laerm;9315;52.624;13.544;2022-07-10T01:30:06;56.15;32.30;74.47;;
18377;Laerm;9315;52.624;13.544;2022-07-10T01:32:40;37.71;32.71;44.66;;
18377;Laerm;9315;52.624;13.544;2022-07-10T01:35:08;56.32;34.63;71.32;;
18377;Laerm;9315;52.624;13.544;2022-07-10T01:37:35;47.06;34.37;64.20;;
18377;Laerm;9315;52.624;13.544;2022-07-10T01:40:04;61.60;34.60;79.92;;
18377;Laerm;9315;52.624;13.544;2022-07-10T01:42:31;38.32;34.32;47.51;;
18377;Laerm;9315;52.624;13.544;2022-07-10T01:44:58;58.85;33.76;76.78;;
18377;Laerm;9315;52.624;13.544;2022-07-10T01:47:32;54.92;36.38;70.69;;
18377;Laerm;9315;52.624;13.544;2022-07-10T01:49:59;41.23;33.67;59.55;;
18377;Laerm;9315;52.624;13.544;2022-07-10T01:52:26;43.43;35.26;58.57;;
18377;Laerm;9315;52.624;13.544;2022-07-10T01:54:53;57.96;35.73;75.24;;
18377;Laerm;9315;52.624;13.544;2022-07-10T01:57:20;43.91;35.10;61.34;;
18377;Laerm;9315;52.624;13.544;2022-07-10T01:59:47;55.02;34.03;74.97;;
18377;Laerm;9315;52.624;13.544;2022-07-10T02:02:14;44.40;36.22;59.71;;
18377;Laerm;9315;52.624;13.544;2022-07-10T02:04:41;53.61;38.29;71.43;;
18377;Laerm;9315;52.624;13.544;2022-07-10T02:07:15;54.12;35.44;71.50;;
18377;Laerm;9315;52.624;13.544;2022-07-10T02:09:44;57.81;35.39;75.13;;
18377;Laerm;9315;52.624;13.544;2022-07-10T02:12:14;59.05;35.30;77.18;;
18377;Laerm;9315;52.624;13.544;2022-07-10T02:14:42;40.48;34.75;54.13;;
18377;Laerm;9315;52.624;13.544;2022-07-10T02:17:09;57.89;35.93;74.28;;
18377;Laerm;9315;52.624;13.544;2022-07-10T02:19:36;56.58;35.92;73.71;;
18377;Laerm;9315;52.624;13.544;2022-07-10T02:22:04;53.60;34.97;73.53;;
18377;Laerm;9315;52.624;13.544;2022-07-10T02:24:31;56.41;35.72;75.66;;
18377;Laerm;9315;52.624;13.544;2022-07-10T02:26:58;53.66;37.55;73.20;;
18377;Laerm;9315;52.624;13.544;2022-07-10T02:29:25;56.34;38.23;72.50;;
18377;Laerm;9315;52.624;13.544;2022-07-10T02:31:52;51.55;38.04;69.56;;
18377;Laerm;9315;52.624;13.544;2022-07-10T02:34:19;57.14;37.25;70.38;;
18377;Laerm;9315;52.624;13.544;2022-07-10T02:36:46;42.77;37.72;57.69;;
18377;Laerm;9315;52.624;13.544;2022-07-10T02:39:13;55.68;37.25;72.31;;
18377;Laerm;9315;52.624;13.544;2022-07-10T02:41:40;54.07;37.02;73.02;;
18377;Laerm;9315;52.624;13.544;2022-07-10T02:44:08;54.03;36.76;71.87;;
18377;Laerm;9315;52.624;13.544;2022-07-10T02:46:35;60.46;38.05;77.48;;
18377;Laerm;9315;52.624;13.544;2022-07-10T02:49:02;57.63;36.79;75.53;;
18377;Laerm;9315;52.624;13.544;2022-07-10T02:51:30;59.75;35.98;78.26;;
18377;Laerm;9315;52.624;13.544;2022-07-10T02:53:58;54.68;35.28;72.26;;
18377;Laerm;9315;52.624;13.544;2022-07-10T02:56:25;55.80;35.49;73.99;;
18377;Laerm;9315;52.624;13.544;2022-07-10T02:58:52;53.80;35.09;70.85;;
18377;Laerm;9315;52.624;13.544;2022-07-10T03:01:19;53.14;34.62;70.05;;
18377;Laerm;9315;52.624;13.544;2022-07-10T03:03:46;59.19;36.57;78.44;;
18377;Laerm;9315;52.624;13.544;2022-07-10T03:06:13;52.19;35.72;69.94;;
18377;Laerm;9315;52.624;13.544;2022-07-10T03:08:40;60.19;37.86;77.83;;
18377;Laerm;9315;52.624;13.544;2022-07-10T03:11:09;60.60;38.93;73.85;;
18377;Laerm;9315;52.624;13.544;2022-07-10T03:13:36;57.64;36.88;71.08;;
18377;Laerm;9315;52.624;13.544;2022-07-10T03:16:03;56.80;36.02;72.18;;
18377;Laerm;9315;52.624;13.544;2022-07-10T03:18:30;60.11;37.50;76.00;;
18377;Laerm;9315;52.624;13.544;2022-07-10T03:20:58;63.12;38.06;77.02;;
18377;Laerm;9315;52.624;13.544;2022-07-10T03:23:25;56.43;36.91;73.54;;
18377;Laerm;9315;52.624;13.544;2022-07-10T03:25:52;60.88;37.00;74.78;;
18377;Laerm;9315;52.624;13.544;2022-07-10T03:28:19;59.35;37.62;73.74;;
18377;Laerm;9315;52.624;13.544;2022-07-10T03:30:46;60.89;38.81;74.57;;
18377;Laerm;9315;52.624;13.544;2022-07-10T03:33:13;43.50;37.33;51.78;;
18377;Laerm;9315;52.624;13.544;2022-07-10T03:35:40;63.50;36.48;83.90;;
18377;Laerm;9315;52.624;13.544;2022-07-10T03:38:07;59.29;41.27;72.79;;
18377;Laerm;9315;52.624;13.544;2022-07-10T03:40:34;61.98;38.88;75.22;;
18377;Laerm;9315;52.624;13.544;2022-07-10T03:43:01;61.52;37.51;77.41;;
18377;Laerm;9315;52.624;13.544;2022-07-10T03:45:28;62.14;38.18;83.18;;
18377;Laerm;9315;52.624;13.544;2022-07-10T03:47:55;63.48;38.44;77.76;;
18377;Laerm;9315;52.624;13.544;2022-07-10T03:50:22;63.09;37.67;77.96;;
18377;Laerm;9315;52.624;13.544;2022-07-10T03:52:49;58.18;38.00;75.01;;
18377;Laerm;9315;52.624;13.544;2022-07-10T03:55:16;53.76;37.29;71.03;;
18377;Laerm;9315;52.624;13.544;2022-07-10T03:57:43;55.98;37.34;71.56;;
18377;Laerm;9315;52.624;13.544;2022-07-10T04:00:25;59.47;36.77;74.62;;
18377;Laerm;9315;52.624;13.544;2022-07-10T04:03:02;53.86;38.65;72.12;;
18377;Laerm;9315;52.624;13.544;2022-07-10T04:05:31;60.97;38.28;75.18;;
18377;Laerm;9315;52.624;13.544;2022-07-10T04:08:00;59.78;39.53;73.71;;
18377;Laerm;9315;52.624;13.544;2022-07-10T04:10:30;59.72;36.49;77.02;;
18377;Laerm;9315;52.624;13.544;2022-07-10T04:12:58;61.60;37.47;75.85;;
18377;Laerm;9315;52.624;13.544;2022-07-10T04:15:25;62.45;35.21;77.68;;
18377;Laerm;9315;52.624;13.544;2022-07-10T04:17:53;56.02;36.58;74.18;;
18377;Laerm;9315;52.624;13.544;2022-07-10T04:20:20;60.18;38.55;72.77;;
18377;Laerm;9315;52.624;13.544;2022-07-10T04:22:48;58.88;37.42;74.83;;
18377;Laerm;9315;52.624;13.544;2022-07-10T04:25:16;60.12;37.33;72.40;;
18377;Laerm;9315;52.624;13.544;2022-07-10T04:27:43;59.54;37.19;76.18;;
18377;Laerm;9315;52.624;13.544;2022-07-10T04:30:10;61.36;36.65;75.36;;
18377;Laerm;9315;52.624;13.544;2022-07-10T04:32:37;60.18;38.25;75.40;;
18377;Laerm;9315;52.624;13.544;2022-07-10T04:35:05;61.72;36.76;79.57;;
18377;Laerm;9315;52.624;13.544;2022-07-10T04:37:32;43.14;36.04;58.50;;
18377;Laerm;9315;52.624;13.544;2022-07-10T04:40:01;62.87;41.72;75.25;;
18377;Laerm;9315;52.624;13.544;2022-07-10T04:42:28;57.76;40.27;71.13;;
18377;Laerm;9315;52.624;13.544;2022-07-10T04:44:55;62.41;38.66;76.49;;
18377;Laerm;9315;52.624;13.544;2022-07-10T04:47:22;57.82;37.26;73.57;;
18377;Laerm;9315;52.624;13.544;2022-07-10T04:49:49;53.95;36.58;74.38;;
18377;Laerm;9315;52.624;13.544;2022-07-10T04:52:16;61.45;39.30;74.18;;
18377;Laerm;9315;52.624;13.544;2022-07-10T04:54:43;57.35;36.51;72.54;;
18377;Laerm;9315;52.624;13.544;2022-07-10T04:57:10;42.33;36.43;57.60;;
18377;Laerm;9315;52.624;13.544;2022-07-10T04:59:37;43.01;36.36;50.91;;
18377;Laerm;9315;52.624;13.544;2022-07-10T05:02:04;60.64;37.80;75.40;;
18377;Laerm;9315;52.624;13.544;2022-07-10T05:04:31;56.07;37.60;71.00;;
18377;Laerm;9315;52.624;13.544;2022-07-10T05:06:58;53.82;36.27;70.66;;
18377;Laerm;9315;52.624;13.544;2022-07-10T05:09:25;60.78;39.21;76.06;;
18377;Laerm;9315;52.624;13.544;2022-07-10T05:11:54;57.01;38.06;74.04;;
18377;Laerm;9315;52.624;13.544;2022-07-10T05:14:21;61.03;40.67;76.44;;
18377;Laerm;9315;52.624;13.544;2022-07-10T05:16:48;62.23;37.87;76.55;;
18377;Laerm;9315;52.624;13.544;2022-07-10T05:19:15;56.44;37.96;72.16;;
18377;Laerm;9315;52.624;13.544;2022-07-10T05:21:42;65.07;39.26;82.64;;
18377;Laerm;9315;52.624;13.544;2022-07-10T05:24:09;61.39;40.07;74.93;;
18377;Laerm;9315;52.624;13.544;2022-07-10T05:26:36;56.87;37.33;74.51;;
18377;Laerm;9315;52.624;13.544;2022-07-10T05:29:03;59.00;38.06;73.27;;
18377;Laerm;9315;52.624;13.544;2022-07-10T05:31:30;58.30;38.61;75.39;;
18377;Laerm;9315;52.624;13.544;2022-07-10T05:33:58;56.42;37.80;73.64;;
18377;Laerm;9315;52.624;13.544;2022-07-10T05:36:25;56.73;38.21;73.45;;
18377;Laerm;9315;52.624;13.544;2022-07-10T05:38:52;64.18;42.79;74.94;;
18377;Laerm;9315;52.624;13.544;2022-07-10T05:41:19;59.44;39.65;75.53;;
18377;Laerm;9315;52.624;13.544;2022-07-10T05:43:46;58.14;37.81;72.76;;
18377;Laerm;9315;52.624;13.544;2022-07-10T05:46:13;59.55;38.35;73.09;;
18377;Laerm;9315;52.624;13.544;2022-07-10T05:48:40;58.65;40.71;74.26;;
18377;Laerm;9315;52.624;13.544;2022-07-10T05:51:08;55.97;40.12;73.20;;
18377;Laerm;9315;52.624;13.544;2022-07-10T05:53:55;60.50;41.06;75.24;;
18377;Laerm;9315;52.624;13.544;2022-07-10T05:56:22;57.07;39.93;72.66;;
18377;Laerm;9315;52.624;13.544;2022-07-10T05:58:49;61.63;40.65;74.95;;
18377;Laerm;9315;52.624;13.544;2022-07-10T06:01:16;58.18;38.52;76.24;;
18377;Laerm;9315;52.624;13.544;2022-07-10T06:03:44;66.04;39.78;84.03;;
18377;Laerm;9315;52.624;13.544;2022-07-10T06:06:12;55.93;38.30;73.66;;
18377;Laerm;9315;52.624;13.544;2022-07-10T06:08:43;61.70;41.80;76.21;;
18377;Laerm;9315;52.624;13.544;2022-07-10T06:11:11;62.00;38.95;73.50;;
18377;Laerm;9315;52.624;13.544;2022-07-10T06:13:39;60.64;39.52;74.36;;
18377;Laerm;9315;52.624;13.544;2022-07-10T06:16:06;59.76;40.76;75.58;;
18377;Laerm;9315;52.624;13.544;2022-07-10T06:18:34;63.48;41.89;74.34;;
18377;Laerm;9315;52.624;13.544;2022-07-10T06:21:01;64.09;40.25;76.53;;
18377;Laerm;9315;52.624;13.544;2022-07-10T06:23:30;63.70;43.36;76.24;;
18377;Laerm;9315;52.624;13.544;2022-07-10T06:25:57;62.88;42.91;74.85;;
18377;Laerm;9315;52.624;13.544;2022-07-10T06:28:24;59.17;39.58;77.83;;
18377;Laerm;9315;52.624;13.544;2022-07-10T06:30:51;60.56;43.16;75.06;;
18377;Laerm;9315;52.624;13.544;2022-07-10T06:33:26;62.03;41.17;74.93;;
18377;Laerm;9315;52.624;13.544;2022-07-10T06:35:53;61.08;41.33;73.29;;
18377;Laerm;9315;52.624;13.544;2022-07-10T06:38:20;63.42;39.91;74.96;;
18377;Laerm;9315;52.624;13.544;2022-07-10T06:40:47;63.65;42.62;75.70;;
18377;Laerm;9315;52.624;13.544;2022-07-10T06:43:14;63.52;44.18;74.96;;
18377;Laerm;9315;52.624;13.544;2022-07-10T06:45:41;62.62;45.06;75.27;;
18377;Laerm;9315;52.624;13.544;2022-07-10T06:48:09;64.12;45.55;75.18;;
18377;Laerm;9315;52.624;13.544;2022-07-10T06:50:36;63.44;42.00;76.38;;
18377;Laerm;9315;52.624;13.544;2022-07-10T06:53:05;63.64;42.98;75.68;;
18377;Laerm;9315;52.624;13.544;2022-07-10T06:55:33;63.51;41.91;75.63;;
18377;Laerm;9315;52.624;13.544;2022-07-10T06:58:00;59.25;39.89;73.77;;
18377;Laerm;9315;52.624;13.544;2022-07-10T07:00:28;62.40;40.47;76.00;;
18377;Laerm;9315;52.624;13.544;2022-07-10T07:02:55;65.69;42.66;75.87;;
18377;Laerm;9315;52.624;13.544;2022-07-10T07:05:23;59.99;39.91;73.93;;
18377;Laerm;9315;52.624;13.544;2022-07-10T07:07:52;64.67;40.61;73.78;;
18377;Laerm;9315;52.624;13.544;2022-07-10T07:10:19;57.68;40.93;71.95;;
18377;Laerm;9315;52.624;13.544;2022-07-10T07:12:47;62.22;41.39;75.86;;
18377;Laerm;9315;52.624;13.544;2022-07-10T07:15:14;63.42;43.15;76.23;;
18377;Laerm;9315;52.624;13.544;2022-07-10T07:17:43;64.47;42.87;75.15;;
18377;Laerm;9315;52.624;13.544;2022-07-10T07:20:29;63.95;44.97;76.86;;
18377;Laerm;9315;52.624;13.544;2022-07-10T07:23:15;66.01;43.35;76.77;;
18377;Laerm;9315;52.624;13.544;2022-07-10T07:25:42;62.62;43.42;75.73;;
18377;Laerm;9315;52.624;13.544;2022-07-10T07:28:15;66.77;42.48;76.80;;
18377;Laerm;9315;52.624;13.544;2022-07-10T07:30:43;64.19;41.59;76.25;;
18377;Laerm;9315;52.624;13.544;2022-07-10T07:33:10;63.92;41.48;76.51;;
18377;Laerm;9315;52.624;13.544;2022-07-10T07:35:39;65.63;41.86;75.90;;
18377;Laerm;9315;52.624;13.544;2022-07-10T07:38:06;64.83;43.45;75.35;;
18377;Laerm;9315;52.624;13.544;2022-07-10T07:40:33;64.72;43.85;76.89;;
18377;Laerm;9315;52.624;13.544;2022-07-10T07:43:01;66.22;45.16;77.37;;
18377;Laerm;9315;52.624;13.544;2022-07-10T07:45:28;64.62;45.14;75.64;;
18377;Laerm;9315;52.624;13.544;2022-07-10T07:47:57;66.00;42.77;78.04;;
18377;Laerm;9315;52.624;13.544;2022-07-10T07:50:33;65.98;42.58;77.32;;
18377;Laerm;9315;52.624;13.544;2022-07-10T07:53:04;65.34;45.85;76.89;;
18377;Laerm;9315;52.624;13.544;2022-07-10T07:55:33;67.11;48.32;76.98;;
18377;Laerm;9315;52.624;13.544;2022-07-10T07:58:01;63.90;44.04;72.73;;
18377;Laerm;9315;52.624;13.544;2022-07-10T08:00:30;63.17;42.03;76.26;;
18377;Laerm;9315;52.624;13.544;2022-07-10T08:02:58;64.42;43.92;78.87;;
18377;Laerm;9315;52.624;13.544;2022-07-10T08:05:28;63.88;44.01;75.11;;
18377;Laerm;9315;52.624;13.544;2022-07-10T08:08:00;67.03;45.32;75.90;;
18377;Laerm;9315;52.624;13.544;2022-07-10T08:10:32;65.48;43.42;73.66;;
18377;Laerm;9315;52.624;13.544;2022-07-10T08:12:59;65.97;44.48;75.98;;
18377;Laerm;9315;52.624;13.544;2022-07-10T08:15:26;66.56;43.60;77.27;;
18377;Laerm;9315;52.624;13.544;2022-07-10T08:17:58;67.11;45.12;77.47;;
18377;Laerm;9315;52.624;13.544;2022-07-10T08:20:26;65.01;41.25;75.18;;
18377;Laerm;9315;52.624;13.544;2022-07-10T08:22:54;66.67;43.98;76.61;;
18377;Laerm;9315;52.624;13.544;2022-07-10T08:25:27;65.99;43.79;81.03;;
18377;Laerm;9315;52.624;13.544;2022-07-10T08:27:54;66.78;44.91;75.93;;
18377;Laerm;9315;52.624;13.544;2022-07-10T08:30:21;65.62;44.45;75.01;;
18377;Laerm;9315;52.624;13.544;2022-07-10T08:32:48;66.68;46.20;76.65;;
18377;Laerm;9315;52.624;13.544;2022-07-10T08:35:15;67.44;42.42;75.09;;
18377;Laerm;9315;52.624;13.544;2022-07-10T08:37:44;66.79;45.11;78.53;;
18377;Laerm;9315;52.624;13.544;2022-07-10T08:40:16;66.58;41.93;74.71;;
18377;Laerm;9315;52.624;13.544;2022-07-10T08:42:44;66.80;46.93;75.72;;
18377;Laerm;9315;52.624;13.544;2022-07-10T08:45:15;65.42;45.98;74.86;;
18377;Laerm;9315;52.624;13.544;2022-07-10T08:47:42;65.57;46.58;75.05;;
18377;Laerm;9315;52.624;13.544;2022-07-10T08:50:24;64.33;43.05;74.22;;
18377;Laerm;9315;52.624;13.544;2022-07-10T08:53:13;65.98;44.02;75.22;;
18377;Laerm;9315;52.624;13.544;2022-07-10T08:55:43;65.47;46.99;75.98;;
18377;Laerm;9315;52.624;13.544;2022-07-10T08:58:15;66.62;44.92;77.17;;
18377;Laerm;9315;52.624;13.544;2022-07-10T09:00:44;66.11;45.83;76.38;;
18377;Laerm;9315;52.624;13.544;2022-07-10T09:03:11;66.07;50.55;74.89;;
18377;Laerm;9315;52.624;13.544;2022-07-10T09:05:38;67.83;53.53;76.48;;
18377;Laerm;9315;52.624;13.544;2022-07-10T09:08:28;64.61;44.05;75.17;;
18377;Laerm;9315;52.624;13.544;2022-07-10T09:11:19;68.17;42.80;84.29;;
18377;Laerm;9315;52.624;13.544;2022-07-10T09:13:54;67.49;47.10;77.32;;
18377;Laerm;9315;52.624;13.544;2022-07-10T09:16:30;67.15;46.94;75.92;;
18377;Laerm;9315;52.624;13.544;2022-07-10T09:19:25;66.03;46.42;78.07;;
18377;Laerm;9315;52.624;13.544;2022-07-10T09:21:55;66.96;47.67;78.30;;
18377;Laerm;9315;52.624;13.544;2022-07-10T09:24:26;67.72;47.36;80.16;;
18377;Laerm;9315;52.624;13.544;2022-07-10T09:27:02;65.64;45.33;77.35;;
18377;Laerm;9315;52.624;13.544;2022-07-10T09:29:32;67.32;47.97;75.76;;
18377;Laerm;9315;52.624;13.544;2022-07-10T09:32:02;67.69;44.39;78.51;;
18377;Laerm;9315;52.624;13.544;2022-07-10T09:34:41;68.80;43.77;82.12;;
18377;Laerm;9315;52.624;13.544;2022-07-10T09:40:04;68.89;41.89;87.82;;
18377;Laerm;9315;52.624;13.544;2022-07-10T09:42:39;66.64;46.43;75.33;;
18377;Laerm;9315;52.624;13.544;2022-07-10T09:47:54;66.14;45.14;75.96;;
18377;Laerm;9315;52.624;13.544;2022-07-10T09:50:34;66.81;43.10;75.78;;
18377;Laerm;9315;52.624;13.544;2022-07-10T09:53:07;66.45;46.36;75.37;;
18377;Laerm;9315;52.624;13.544;2022-07-10T09:55:37;66.94;47.19;76.17;;
18377;Laerm;9315;52.624;13.544;2022-07-10T09:58:06;67.96;48.12;78.47;;
18377;Laerm;9315;52.624;13.544;2022-07-10T10:00:38;67.22;45.18;75.14;;
18377;Laerm;9315;52.624;13.544;2022-07-10T10:03:10;66.58;44.79;76.53;;
18377;Laerm;9315;52.624;13.544;2022-07-10T10:06:16;66.11;43.11;76.55;;
18377;Laerm;9315;52.624;13.544;2022-07-10T10:09:30;67.31;43.05;77.38;;
18377;Laerm;9315;52.624;13.544;2022-07-10T10:12:07;65.95;45.50;74.96;;
18377;Laerm;9315;52.624;13.544;2022-07-10T10:14:40;67.59;44.63;76.19;;
18377;Laerm;9315;52.624;13.544;2022-07-10T10:17:08;66.89;44.51;75.74;;
18377;Laerm;9315;52.624;13.544;2022-07-10T10:19:36;65.34;43.34;74.85;;
18377;Laerm;9315;52.624;13.544;2022-07-10T10:22:23;66.08;44.49;75.22;;
18377;Laerm;9315;52.624;13.544;2022-07-10T10:24:52;68.26;43.15;82.68;;
18377;Laerm;9315;52.624;13.544;2022-07-10T10:27:21;68.60;47.05;78.95;;
18377;Laerm;9315;52.624;13.544;2022-07-10T10:29:49;68.25;46.07;82.24;;
18377;Laerm;9315;52.624;13.544;2022-07-10T10:32:17;64.70;43.13;74.84;;
18377;Laerm;9315;52.624;13.544;2022-07-10T10:34:48;66.81;44.86;74.88;;
18377;Laerm;9315;52.624;13.544;2022-07-10T10:37:39;66.54;45.90;75.85;;
18377;Laerm;9315;52.624;13.544;2022-07-10T10:40:32;69.56;47.60;83.89;;
18377;Laerm;9315;52.624;13.544;2022-07-10T10:43:23;67.76;44.19;78.95;;
18377;Laerm;9315;52.624;13.544;2022-07-10T10:45:51;68.32;46.96;75.92;;
18377;Laerm;9315;52.624;13.544;2022-07-10T10:48:19;67.89;47.60;75.48;;
18377;Laerm;9315;52.624;13.544;2022-07-10T10:51:05;67.26;42.39;81.41;;
18377;Laerm;9315;52.624;13.544;2022-07-10T10:53:32;67.92;46.04;77.97;;
18377;Laerm;9315;52.624;13.544;2022-07-10T10:58:46;67.01;47.51;76.34;;
18377;Laerm;9315;52.624;13.544;2022-07-10T11:09:32;67.58;47.51;77.13;;
18377;Laerm;9315;52.624;13.544;2022-07-10T11:12:10;69.14;44.85;82.35;;
18377;Laerm;9315;52.624;13.544;2022-07-10T11:14:45;67.42;47.94;75.05;;
18377;Laerm;9315;52.624;13.544;2022-07-10T11:17:13;67.95;43.52;76.44;;
18377;Laerm;9315;52.624;13.544;2022-07-10T11:19:40;67.99;44.65;77.05;;
18377;Laerm;9315;52.624;13.544;2022-07-10T11:25:53;68.14;45.72;77.34;;
18377;Laerm;9315;52.624;13.544;2022-07-10T11:28:54;68.13;49.41;75.87;;
18377;Laerm;9315;52.624;13.544;2022-07-10T11:31:24;66.83;47.60;76.24;;
18377;Laerm;9315;52.624;13.544;2022-07-10T11:33:55;67.63;48.17;76.71;;
18377;Laerm;9315;52.624;13.544;2022-07-10T11:36:26;67.11;46.77;78.52;;
18377;Laerm;9315;52.624;13.544;2022-07-10T11:39:02;68.39;44.80;78.35;;
18377;Laerm;9315;52.624;13.544;2022-07-10T11:41:30;66.86;50.15;75.50;;
18377;Laerm;9315;52.624;13.544;2022-07-10T11:44:03;68.14;43.66;76.29;;
18377;Laerm;9315;52.624;13.544;2022-07-10T11:46:35;67.43;48.10;76.97;;
18377;Laerm;9315;52.624;13.544;2022-07-10T11:49:06;68.21;48.13;76.45;;
18377;Laerm;9315;52.624;13.544;2022-07-10T11:51:39;71.86;50.87;92.51;;
18377;Laerm;9315;52.624;13.544;2022-07-10T11:54:16;68.72;45.74;78.79;;
18377;Laerm;9315;52.624;13.544;2022-07-10T11:56:51;67.59;48.40;74.70;;
18377;Laerm;9315;52.624;13.544;2022-07-10T11:59:27;68.16;45.86;78.07;;
18377;Laerm;9315;52.624;13.544;2022-07-10T12:01:55;69.19;47.92;77.99;;
18377;Laerm;9315;52.624;13.544;2022-07-10T12:04:24;67.33;43.78;75.82;;
18377;Laerm;9315;52.624;13.544;2022-07-10T12:06:54;69.36;43.43;87.86;;
18377;Laerm;9315;52.624;13.544;2022-07-10T12:09:23;67.74;47.05;78.18;;
18377;Laerm;9315;52.624;13.544;2022-07-10T12:12:03;68.55;44.61;76.28;;
18377;Laerm;9315;52.624;13.544;2022-07-10T12:14:32;67.41;42.46;77.04;;
18377;Laerm;9315;52.624;13.544;2022-07-10T12:17:00;67.99;45.86;78.16;;
18377;Laerm;9315;52.624;13.544;2022-07-10T12:19:37;66.99;43.44;75.33;;
18377;Laerm;9315;52.624;13.544;2022-07-10T12:22:05;66.96;44.39;75.55;;
18377;Laerm;9315;52.624;13.544;2022-07-10T12:24:33;67.97;51.68;75.75;;
18377;Laerm;9315;52.624;13.544;2022-07-10T12:27:00;64.75;41.10;75.32;;
18377;Laerm;9315;52.624;13.544;2022-07-10T12:29:29;67.76;43.32;77.16;;
18377;Laerm;9315;52.624;13.544;2022-07-10T12:32:00;67.72;43.53;77.16;;
18377;Laerm;9315;52.624;13.544;2022-07-10T12:34:42;67.85;47.52;74.42;;
18377;Laerm;9315;52.624;13.544;2022-07-10T12:37:20;67.42;45.85;78.22;;
18377;Laerm;9315;52.624;13.544;2022-07-10T12:39:51;67.81;45.46;75.79;;
18377;Laerm;9315;52.624;13.544;2022-07-10T12:42:30;68.13;40.04;76.77;;
18377;Laerm;9315;52.624;13.544;2022-07-10T12:45:14;66.12;41.67;78.72;;
18377;Laerm;9315;52.624;13.544;2022-07-10T12:47:49;65.21;44.73;74.79;;
18377;Laerm;9315;52.624;13.544;2022-07-10T12:50:17;67.79;42.02;76.62;;
18377;Laerm;9315;52.624;13.544;2022-07-10T12:52:45;65.97;41.25;73.56;;
18377;Laerm;9315;52.624;13.544;2022-07-10T12:55:21;66.78;39.90;76.32;;
18377;Laerm;9315;52.624;13.544;2022-07-10T12:58:04;66.63;43.39;75.07;;
18377;Laerm;9315;52.624;13.544;2022-07-10T13:00:36;67.79;45.74;81.66;;
18377;Laerm;9315;52.624;13.544;2022-07-10T13:03:19;67.39;43.09;79.98;;
18377;Laerm;9315;52.624;13.544;2022-07-10T13:05:46;65.76;42.53;75.12;;
18377;Laerm;9315;52.624;13.544;2022-07-10T13:08:22;67.60;42.69;76.01;;
18377;Laerm;9315;52.624;13.544;2022-07-10T13:10:57;66.16;42.56;76.17;;
18377;Laerm;9315;52.624;13.544;2022-07-10T13:13:27;66.84;46.42;76.47;;
18377;Laerm;9315;52.624;13.544;2022-07-10T13:15:56;66.36;47.42;80.51;;
18377;Laerm;9315;52.624;13.544;2022-07-10T13:18:27;66.84;46.24;78.63;;
18377;Laerm;9315;52.624;13.544;2022-07-10T13:20:56;67.79;45.04;76.33;;
18377;Laerm;9315;52.624;13.544;2022-07-10T13:23:28;65.52;42.82;74.50;;
18377;Laerm;9315;52.624;13.544;2022-07-10T13:25:56;69.88;44.70;85.13;;
18377;Laerm;9315;52.624;13.544;2022-07-10T13:28:23;66.80;43.71;77.86;;
18377;Laerm;9315;52.624;13.544;2022-07-10T13:30:51;64.99;39.69;74.48;;
18377;Laerm;9315;52.624;13.544;2022-07-10T13:33:18;67.63;42.29;76.17;;
18377;Laerm;9315;52.624;13.544;2022-07-10T13:35:45;65.27;39.37;75.97;;
18377;Laerm;9315;52.624;13.544;2022-07-10T13:38:12;67.25;40.34;76.47;;
18377;Laerm;9315;52.624;13.544;2022-07-10T13:40:44;66.12;42.36;76.99;;
18377;Laerm;9315;52.624;13.544;2022-07-10T13:43:14;65.71;41.07;76.53;;
18377;Laerm;9315;52.624;13.544;2022-07-10T13:45:44;65.86;41.72;77.63;;
18377;Laerm;9315;52.624;13.544;2022-07-10T13:48:15;66.47;43.62;77.57;;
18377;Laerm;9315;52.624;13.544;2022-07-10T13:50:45;64.00;40.66;74.52;;
18377;Laerm;9315;52.624;13.544;2022-07-10T13:53:16;64.77;41.34;76.18;;
18377;Laerm;9315;52.624;13.544;2022-07-10T13:55:44;65.86;42.14;78.05;;
18377;Laerm;9315;52.624;13.544;2022-07-10T13:58:12;69.17;47.93;82.11;;
18377;Laerm;9315;52.624;13.544;2022-07-10T14:00:39;66.09;42.03;76.56;;
18377;Laerm;9315;52.624;13.544;2022-07-10T14:03:07;65.91;42.09;78.71;;
18377;Laerm;9315;52.624;13.544;2022-07-10T14:05:34;66.59;49.14;78.31;;
18377;Laerm;9315;52.624;13.544;2022-07-10T14:08:04;67.78;44.02;77.48;;
18377;Laerm;9315;52.624;13.544;2022-07-10T14:10:31;65.99;43.14;75.91;;
18377;Laerm;9315;52.624;13.544;2022-07-10T14:12:59;67.45;42.32;82.77;;
18377;Laerm;9315;52.624;13.544;2022-07-10T14:15:26;65.73;44.63;75.63;;
18377;Laerm;9315;52.624;13.544;2022-07-10T14:17:53;67.58;42.94;76.20;;
18377;Laerm;9315;52.624;13.544;2022-07-10T14:20:24;66.79;44.17;77.46;;